Laupqren — LMQP — position and weather

sailwx.info

Track history (hours):
 
Tides and Currents Weather Stations Pressure Air Temp Water Temp Dewpoint Dewpoint Depression Visibility Wind Speed Wind Dir Waves Ship Positions

Laupqren

Last reported at 2018-May-09 11:23 UTC. Time now 2018-Jun-18 05:26 UTC.
Position N 16°48' W 062°12'.
Warning: this ship's position is 39 days out of date.

MMSI: 257285700.

Date/timePositionNaut miles runAvg speedWind from/ knotsBaromVisibWave heightAir tempDewpointWater temp
2018-May-09 11:23N 16°48' W 062°12'0 0.0
2018-May-09 11:00N 16°48' W 062°12'0 0.0
2018-May-09 10:29N 16°48' W 062°12'0 0.0
2018-May-09 10:00N 16°48' W 062°12'0 0.0
2018-May-09 09:30N 16°48' W 062°12'0 0.0
2018-May-09 09:00N 16°48' W 062°12'0 0.0
2018-May-09 08:27N 16°48' W 062°12'0 0.0
2018-May-09 07:59N 16°48' W 062°12'0 0.0
2018-May-09 07:28N 16°48' W 062°12'0 0.0
2018-May-09 07:00N 16°48' W 062°12'0 0.0
2018-May-09 06:30N 16°48' W 062°12'0 0.0
2018-May-09 05:59N 16°48' W 062°12'0 0.0
2018-May-09 05:29N 16°48' W 062°12'0 0.0
2018-May-09 04:54N 16°48' W 062°12'0 0.0
2018-May-09 04:27N 16°48' W 062°12'0 0.0
2018-May-09 04:00N 16°48' W 062°12'0 0.0
2018-May-09 03:29N 16°48' W 062°12'0 0.0
2018-May-09 03:00N 16°48' W 062°12'0 0.0
2018-May-09 02:23N 16°48' W 062°12'0 0.0
2018-May-09 02:00N 16°48' W 062°12'0 0.0
2018-May-09 01:30N 16°48' W 062°12'0 0.0
2018-May-09 00:54N 16°48' W 062°12'3 7.8
2018-May-09 00:31N 16°51' W 062°11'1121.2
2018-May-09 00:00N 16°59' W 062°03'1123.0
2018-May-08 23:31N 17°07' W 061°55'4 8.3
2018-May-08 23:00N 17°07' W 061°51'0 0.0
2018-May-08 22:30N 17°07' W 061°51'4 8.0
2018-May-08 22:01N 17°07' W 061°55'1223.1
2018-May-08 21:31N 16°59' W 062°04'1121.6
2018-May-08 21:01N 16°51' W 062°12'3 6.2
2018-May-08 20:30N 16°48' W 062°12'0 0.0
2018-May-08 20:00N 16°48' W 062°12'0 0.0
2018-May-08 19:30N 16°48' W 062°12'0 0.0
2018-May-08 18:59N 16°48' W 062°12'0 0.0
2018-May-08 18:31N 16°48' W 062°12'0 0.0
2018-May-08 17:59N 16°48' W 062°12'0 0.0
2018-May-08 17:31N 16°48' W 062°12'0 0.0
2018-May-08 17:00N 16°48' W 062°12'0 0.0
2018-May-08 16:30N 16°48' W 062°12'0 0.0
2018-May-08 15:55N 16°48' W 062°12'0 0.0
2018-May-08 15:30N 16°48' W 062°12'0 0.0
2018-May-08 15:00N 16°48' W 062°12'0 0.0
2018-May-08 14:30N 16°48' W 062°12'612.2
2018-May-08 14:01N 16°54' W 062°09'1121.8
2018-May-08 13:31N 17°01' W 062°01'1121.5
2018-May-08 13:00N 17°08' W 061°52'1 3.0
2018-May-08 12:30N 17°07' W 061°51'0 0.0
2018-May-08 12:00N 17°07' W 061°51'4 8.0
2018-May-08 11:30N 17°07' W 061°55'1122.6
2018-May-08 11:01N 16°59' W 062°04'1020.7
2018-May-08 10:31N 16°52' W 062°11'4 7.0
2018-May-08 09:59N 16°48' W 062°12'0 0.0
2018-May-08 09:28N 16°48' W 062°12'0 0.0
2018-May-08 08:59N 16°48' W 062°12'0 0.0
2018-May-08 08:29N 16°48' W 062°12'0 0.0
2018-May-08 07:59N 16°48' W 062°12'0 0.0
2018-May-08 07:30N 16°48' W 062°12'0 0.0
2018-May-08 06:53N 16°48' W 062°12'0 0.0
2018-May-08 06:28N 16°48' W 062°12'0 0.0
2018-May-08 06:00N 16°48' W 062°12'0 0.0
2018-May-08 05:28N 16°48' W 062°12'0 0.0
2018-May-08 04:58N 16°48' W 062°12'0 0.0
2018-May-08 04:28N 16°48' W 062°12'0 0.0
2018-May-08 03:58N 16°48' W 062°12'0 0.0
2018-May-08 03:27N 16°48' W 062°12'0 0.0
2018-May-07 23:56N 16°48' W 062°12'0 0.0
2018-May-07 22:52N 16°48' W 062°12'0 0.0
2018-May-07 22:30N 16°48' W 062°12'0 0.0
2018-May-07 21:59N 16°48' W 062°12'0 0.0
2018-May-07 13:12N 16°48' W 062°12'0 0.0
2018-May-07 12:57N 16°48' W 062°12'0 0.0
2018-May-07 12:26N 16°48' W 062°12'0 0.0
2018-May-07 11:52N 16°48' W 062°12'0 0.0
2018-May-07 11:28N 16°48' W 062°12'0 0.0
2018-May-07 10:58N 16°48' W 062°12'0 0.0
2018-May-07 10:30N 16°48' W 062°12'0 0.0
2018-May-07 10:00N 16°48' W 062°12'0 0.0
2018-May-07 09:30N 16°48' W 062°12'0 0.0
2018-May-07 09:00N 16°48' W 062°12'0 0.0
2018-May-07 08:29N 16°48' W 062°12'0 0.0
2018-May-07 08:00N 16°48' W 062°12'0 0.0
2018-May-07 07:29N 16°48' W 062°12'0 0.0
2018-May-07 07:01N 16°48' W 062°12'0 0.0
2018-May-07 06:31N 16°48' W 062°12'0 0.0
2018-May-07 06:00N 16°48' W 062°12'0 0.0
2018-May-07 05:30N 16°48' W 062°12'0 0.0
2018-May-07 05:00N 16°48' W 062°12'0 0.0
2018-May-07 04:30N 16°48' W 062°12'0 0.0
2018-May-07 04:00N 16°48' W 062°12'0 0.0
2018-May-07 03:30N 16°48' W 062°12'0 0.0
2018-May-07 03:00N 16°48' W 062°12'0 0.0
2018-May-07 02:30N 16°48' W 062°12'0 0.0
2018-May-07 02:01N 16°48' W 062°12'0 0.0
2018-May-07 01:29N 16°48' W 062°12'0 0.0
2018-May-07 00:59N 16°48' W 062°12'0 1.0
2018-May-07 00:30N 16°49' W 062°13'1121.3
2018-May-06 23:59N 16°57' W 062°05'1123.1
2018-May-06 23:31N 17°05' W 061°57'713.4
2018-May-06 23:00N 17°07' W 061°51'0 0.0
2018-May-06 22:30N 17°07' W 061°51'0 0.0
2018-May-06 22:00N 17°07' W 061°51'0 0.0
2018-May-06 21:30N 17°07' W 061°51'0 0.0
2018-May-06 21:00N 17°07' W 061°51'0 0.0
2018-May-06 20:30N 17°07' W 061°51'0 0.0
2018-May-06 20:00N 17°07' W 061°51'0 0.0
2018-May-06 19:30N 17°07' W 061°51'0 0.0
2018-May-06 19:00N 17°07' W 061°51'0 0.0
2018-May-06 18:30N 17°07' W 061°51'0 0.0
2018-May-06 18:00N 17°07' W 061°51'0 0.0
2018-May-06 17:30N 17°07' W 061°51'0 0.0
2018-May-06 17:00N 17°07' W 061°51'0 0.0
2018-May-06 16:30N 17°07' W 061°51'0 0.0
2018-May-06 16:00N 17°07' W 061°51'0 0.0
2018-May-06 15:30N 17°07' W 061°51'0 0.0
2018-May-06 15:00N 17°07' W 061°51'0 0.0
2018-May-06 14:30N 17°07' W 061°51'0 0.0
2018-May-06 14:00N 17°07' W 061°51'0 0.0
2018-May-06 13:30N 17°07' W 061°51'0 0.0
2018-May-06 13:00N 17°07' W 061°51'0 0.0
2018-May-06 12:30N 17°07' W 061°51'0 0.0
2018-May-06 12:00N 17°07' W 061°51'2 3.2
2018-May-06 11:30N 17°08' W 061°52'1121.9
2018-May-06 11:01N 17°02' W 062°02'1121.8
2018-May-06 10:30N 16°54' W 062°11'611.1
2018-May-06 09:55N 16°48' W 062°12'0 0.0
2018-May-06 09:30N 16°48' W 062°12'0 0.0
2018-May-06 08:59N 16°48' W 062°12'0 0.0
2018-May-06 08:28N 16°48' W 062°12'0 0.0
2018-May-06 07:58N 16°48' W 062°12'0 0.0
2018-May-06 07:30N 16°48' W 062°12'0 0.0
2018-May-06 06:58N 16°48' W 062°12'0 0.0
2018-May-06 06:30N 16°48' W 062°12'0 0.0
2018-May-06 06:00N 16°48' W 062°12'0 0.0
2018-May-06 05:29N 16°48' W 062°12'0 0.0
2018-May-06 04:55N 16°48' W 062°12'0 0.0
2018-May-06 04:28N 16°48' W 062°12'0 0.0
2018-May-06 03:59N 16°48' W 062°12'0 0.0
2018-May-06 03:26N 16°48' W 062°12'0 0.0
2018-May-06 02:56N 16°48' W 062°12'0 0.0
2018-May-06 02:28N 16°48' W 062°12'0 0.0
2018-May-06 01:57N 16°48' W 062°12'0 0.0
2018-May-06 01:22N 16°48' W 062°12'0 0.0
2018-May-06 01:00N 16°48' W 062°12'0 0.0
2018-May-06 00:29N 16°48' W 062°12'1118.8
2018-May-05 23:54N 16°57' W 062°05'921.8
2018-May-05 23:30N 17°03' W 061°59'917.9
2018-May-05 23:00N 17°07' W 061°51'0 0.1
2018-May-05 22:30N 17°07' W 061°51'0 0.0
2018-May-05 22:00N 17°07' W 061°51'0 0.0
2018-May-05 21:30N 17°07' W 061°51'0 0.0
2018-May-05 21:00N 17°07' W 061°51'0 0.0
2018-May-05 20:30N 17°07' W 061°51'0 0.0
2018-May-05 20:00N 17°07' W 061°51'0 0.0
2018-May-05 19:30N 17°07' W 061°51'0 0.0
2018-May-05 19:00N 17°07' W 061°51'0 0.0
2018-May-05 18:30N 17°07' W 061°51'0 0.0
2018-May-05 18:00N 17°07' W 061°51'0 0.0
2018-May-05 17:30N 17°07' W 061°51'0 0.0
2018-May-05 17:00N 17°07' W 061°51'0 0.0
2018-May-05 16:30N 17°07' W 061°51'0 0.0
2018-May-05 16:00N 17°07' W 061°51'0 0.0
2018-May-05 15:30N 17°07' W 061°51'0 0.0
2018-May-05 15:00N 17°07' W 061°51'0 0.0
2018-May-05 14:30N 17°07' W 061°51'0 0.0
2018-May-05 14:00N 17°07' W 061°51'0 0.0
2018-May-05 13:30N 17°07' W 061°51'0 0.0
2018-May-05 13:00N 17°07' W 061°51'0 0.0
2018-May-05 12:30N 17°07' W 061°51'0 0.0
2018-May-05 11:59N 17°07' W 061°51'611.8
2018-May-05 11:31N 17°06' W 061°57'1121.3
2018-May-05 11:00N 17°00' W 062°06'1020.8
2018-May-05 10:30N 16°52' W 062°12'3 6.7
2018-May-05 10:00N 16°48' W 062°12'0 0.0
2018-May-05 09:29N 16°48' W 062°12'0 0.0
2018-May-05 08:59N 16°48' W 062°12'0 0.0
2018-May-05 08:30N 16°48' W 062°12'0 0.0
2018-May-05 08:00N 16°48' W 062°12'0 0.0
2018-May-05 07:29N 16°48' W 062°12'0 0.0
2018-May-05 06:58N 16°48' W 062°12'0 0.0
2018-May-05 06:30N 16°48' W 062°12'0 0.0
2018-May-05 06:00N 16°48' W 062°12'0 0.0
2018-May-05 05:30N 16°48' W 062°12'0 0.0
2018-May-05 04:58N 16°48' W 062°12'0 0.0
2018-May-05 04:29N 16°48' W 062°12'0 0.0
2018-May-05 04:00N 16°48' W 062°12'0 0.0
2018-May-05 03:30N 16°48' W 062°12'0 0.0
2018-May-05 03:00N 16°48' W 062°12'0 0.0
2018-May-05 02:30N 16°48' W 062°12'0 0.0
2018-May-05 01:58N 16°48' W 062°12'0 0.0
2018-May-05 01:30N 16°48' W 062°12'4 8.7
2018-May-05 01:01N 16°52' W 062°10'1121.2
2018-May-05 00:31N 16°60' W 062°02'1122.7
2018-May-05 00:01N 17°08' W 061°54'3 6.5
2018-May-04 23:30N 17°07' W 061°51'0 0.0
2018-May-04 23:01N 17°07' W 061°51'0 0.0
2018-May-04 22:31N 17°07' W 061°51'2 3.8
2018-May-04 22:01N 17°08' W 061°53'1122.0
2018-May-04 21:30N 17°01' W 062°01'1121.7
2018-May-04 21:00N 16°53' W 062°10'611.3
2018-May-04 20:30N 16°48' W 062°12'0 0.0
2018-May-04 20:00N 16°48' W 062°12'0 0.0
2018-May-04 19:30N 16°48' W 062°12'0 0.0
2018-May-04 18:55N 16°48' W 062°12'0 0.0
2018-May-04 18:30N 16°48' W 062°12'0 0.0
2018-May-04 17:55N 16°48' W 062°12'0 0.0
2018-May-04 17:29N 16°48' W 062°12'0 0.0
2018-May-04 17:00N 16°48' W 062°12'0 0.0
2018-May-04 16:29N 16°48' W 062°12'0 0.0
2018-May-04 15:58N 16°48' W 062°12'0 0.0
2018-May-04 15:29N 16°48' W 062°12'0 0.0
2018-May-04 15:00N 16°48' W 062°12'0 0.0
2018-May-04 14:30N 16°48' W 062°12'1 1.9
2018-May-04 14:01N 16°49' W 062°13'1020.1
2018-May-04 13:30N 16°57' W 062°06'1121.3
2018-May-04 13:00N 17°04' W 061°58'714.8
2018-May-04 12:31N 17°07' W 061°51'0 0.0
2018-May-04 12:01N 17°07' W 061°51'2 3.8
2018-May-04 11:31N 17°08' W 061°53'1122.8
2018-May-04 11:01N 17°01' W 062°02'1121.2
2018-May-04 10:30N 16°54' W 062°10'611.8
2018-May-04 10:00N 16°48' W 062°12'0 0.0
2018-May-04 09:29N 16°48' W 062°12'0 0.0
2018-May-04 08:58N 16°48' W 062°12'0 0.0
2018-May-04 08:30N 16°48' W 062°12'0 0.0
2018-May-04 07:51N 16°48' W 062°12'0 0.0
2018-May-04 07:30N 16°48' W 062°12'0 0.0
2018-May-04 07:00N 16°48' W 062°12'0 0.0
2018-May-04 06:30N 16°48' W 062°12'0 0.0
2018-May-04 06:00N 16°48' W 062°12'0 0.0
2018-May-04 05:29N 16°48' W 062°12'0 0.0
2018-May-04 05:00N 16°48' W 062°12'0 0.0
2018-May-04 04:30N 16°48' W 062°12'0 0.0
2018-May-04 04:00N 16°48' W 062°12'0 0.0
2018-May-04 03:29N 16°48' W 062°12'0 0.0
2018-May-04 03:00N 16°48' W 062°12'0 0.0
2018-May-04 02:30N 16°48' W 062°12'0 0.0
2018-May-04 01:58N 16°48' W 062°12'0 0.0
2018-May-04 01:29N 16°48' W 062°12'0 0.0
2018-May-04 01:00N 16°48' W 062°12'0 0.8
2018-May-04 00:30N 16°48' W 062°13'1120.1
2018-May-03 23:59N 16°57' W 062°06'1021.4
2018-May-03 23:30N 17°04' W 061°58'815.8
2018-May-03 23:01N 17°07' W 061°51'0 0.0
2018-May-03 22:30N 17°07' W 061°51'0 0.0
2018-May-03 22:01N 17°07' W 061°51'0 0.0
2018-May-03 21:31N 17°07' W 061°51'0 0.0
2018-May-03 21:00N 17°07' W 061°51'0 0.0
2018-May-03 20:30N 17°07' W 061°51'0 0.0
2018-May-03 20:00N 17°07' W 061°51'0 0.0
2018-May-03 19:31N 17°07' W 061°51'0 0.0
2018-May-03 19:01N 17°07' W 061°51'0 0.0
2018-May-03 18:30N 17°07' W 061°51'0 0.0
2018-May-03 17:59N 17°07' W 061°51'0 0.0
2018-May-03 17:30N 17°07' W 061°51'0 0.0
2018-May-03 17:00N 17°07' W 061°51'0 0.0
2018-May-03 16:31N 17°07' W 061°51'0 0.0
2018-May-03 16:00N 17°07' W 061°51'0 0.0
2018-May-03 15:31N 17°07' W 061°51'0 0.0
2018-May-03 15:01N 17°07' W 061°51'0 0.0
2018-May-03 14:30N 17°07' W 061°51'0 0.0
2018-May-03 14:00N 17°07' W 061°51'0 0.0
2018-May-03 13:30N 17°07' W 061°51'0 0.0
2018-May-03 13:00N 17°07' W 061°51'0 0.0
2018-May-03 12:31N 17°07' W 061°51'0 0.0
2018-May-03 12:01N 17°07' W 061°51'4 8.9
2018-May-03 11:31N 17°07' W 061°55'1122.7
2018-May-03 11:01N 16°59' W 062°04'1122.2
2018-May-03 10:31N 16°51' W 062°12'3 5.0
2018-May-03 09:55N 16°48' W 062°12'0 0.0
2018-May-03 09:30N 16°48' W 062°12'0 0.0
2018-May-03 08:57N 16°48' W 062°12'0 0.0
2018-May-03 08:30N 16°48' W 062°12'0 0.0
2018-May-03 08:00N 16°48' W 062°12'0 0.0
2018-May-03 07:30N 16°48' W 062°12'0 0.0
2018-May-03 07:00N 16°48' W 062°12'0 0.0
2018-May-03 06:30N 16°48' W 062°12'0 0.0
2018-May-03 06:00N 16°48' W 062°12'0 0.0
2018-May-03 05:30N 16°48' W 062°12'0 0.0
2018-May-03 04:59N 16°48' W 062°12'0 0.0
2018-May-03 04:30N 16°48' W 062°12'0 0.0
2018-May-03 03:55N 16°48' W 062°12'0 0.0
2018-May-03 03:29N 16°48' W 062°12'0 0.0
2018-May-03 03:00N 16°48' W 062°12'0 0.0
2018-May-03 02:30N 16°48' W 062°12'0 0.0
2018-May-03 01:58N 16°48' W 062°12'0 0.0
2018-May-03 01:29N 16°48' W 062°12'0 0.0
2018-May-03 00:59N 16°48' W 062°12'0 0.0
2018-May-03 00:28N 16°48' W 062°12'0 0.0
2018-May-02 23:59N 16°48' W 062°12'0 0.0
2018-May-02 23:27N 16°48' W 062°12'0 0.0
2018-May-02 23:00N 16°48' W 062°12'0 0.0
2018-May-02 22:30N 16°48' W 062°12'0 0.0
2018-May-02 21:50N 16°48' W 062°12'0 0.0
2018-May-02 21:30N 16°48' W 062°12'0 0.0
2018-May-02 21:00N 16°48' W 062°12'0 0.0
2018-May-02 20:30N 16°48' W 062°12'0 0.0
2018-May-02 20:00N 16°48' W 062°12'0 0.0
2018-May-02 19:29N 16°48' W 062°12'0 0.0
2018-May-02 19:00N 16°48' W 062°12'0 0.0
2018-May-02 18:29N 16°48' W 062°12'0 0.0
2018-May-02 18:01N 16°48' W 062°12'0 0.0
2018-May-02 17:31N 16°48' W 062°12'0 0.0
2018-May-02 16:57N 16°48' W 062°12'0 0.0
2018-May-02 16:30N 16°48' W 062°12'0 0.0
2018-May-02 16:00N 16°48' W 062°12'0 0.0
2018-May-02 15:30N 16°48' W 062°12'0 0.0
2018-May-02 15:01N 16°48' W 062°12'0 0.0
2018-May-02 14:29N 16°48' W 062°12'0 0.0
2018-May-02 13:58N 16°48' W 062°12'  
Track history (hours):
 
Tides and Currents Weather Stations Pressure Air Temp Water Temp Dewpoint Dewpoint Depression Visibility Wind Speed Wind Dir Waves Ship Positions

Laupqren

Last reported at 2018-May-09 11:23 UTC. Time now 2018-Jun-18 05:26 UTC.
Position N 16°48' W 062°12'.
Warning: this ship's position is 39 days out of date.

MMSI: 257285700.

Date/timePositionNaut miles runAvg speedWind from/ knotsBaromVisibWave heightAir tempDewpointWater temp
2018-May-09 11:23N 16°48' W 062°12'0 0.0
2018-May-09 11:00N 16°48' W 062°12'0 0.0
2018-May-09 10:29N 16°48' W 062°12'0 0.0
2018-May-09 10:00N 16°48' W 062°12'0 0.0
2018-May-09 09:30N 16°48' W 062°12'0 0.0
2018-May-09 09:00N 16°48' W 062°12'0 0.0
2018-May-09 08:27N 16°48' W 062°12'0 0.0
2018-May-09 07:59N 16°48' W 062°12'0 0.0
2018-May-09 07:28N 16°48' W 062°12'0 0.0
2018-May-09 07:00N 16°48' W 062°12'0 0.0
2018-May-09 06:30N 16°48' W 062°12'0 0.0
2018-May-09 05:59N 16°48' W 062°12'0 0.0
2018-May-09 05:29N 16°48' W 062°12'0 0.0
2018-May-09 04:54N 16°48' W 062°12'0 0.0
2018-May-09 04:27N 16°48' W 062°12'0 0.0
2018-May-09 04:00N 16°48' W 062°12'0 0.0
2018-May-09 03:29N 16°48' W 062°12'0 0.0
2018-May-09 03:00N 16°48' W 062°12'0 0.0
2018-May-09 02:23N 16°48' W 062°12'0 0.0
2018-May-09 02:00N 16°48' W 062°12'0 0.0
2018-May-09 01:30N 16°48' W 062°12'0 0.0
2018-May-09 00:54N 16°48' W 062°12'3 7.8
2018-May-09 00:31N 16°51' W 062°11'1121.2
2018-May-09 00:00N 16°59' W 062°03'1123.0
2018-May-08 23:31N 17°07' W 061°55'4 8.3
2018-May-08 23:00N 17°07' W 061°51'0 0.0
2018-May-08 22:30N 17°07' W 061°51'4 8.0
2018-May-08 22:01N 17°07' W 061°55'1223.1
2018-May-08 21:31N 16°59' W 062°04'1121.6
2018-May-08 21:01N 16°51' W 062°12'3 6.2
2018-May-08 20:30N 16°48' W 062°12'0 0.0
2018-May-08 20:00N 16°48' W 062°12'0 0.0
2018-May-08 19:30N 16°48' W 062°12'0 0.0
2018-May-08 18:59N 16°48' W 062°12'0 0.0
2018-May-08 18:31N 16°48' W 062°12'0 0.0
2018-May-08 17:59N 16°48' W 062°12'0 0.0
2018-May-08 17:31N 16°48' W 062°12'0 0.0
2018-May-08 17:00N 16°48' W 062°12'0 0.0
2018-May-08 16:30N 16°48' W 062°12'0 0.0
2018-May-08 15:55N 16°48' W 062°12'0 0.0
2018-May-08 15:30N 16°48' W 062°12'0 0.0
2018-May-08 15:00N 16°48' W 062°12'0 0.0
2018-May-08 14:30N 16°48' W 062°12'612.2
2018-May-08 14:01N 16°54' W 062°09'1121.8
2018-May-08 13:31N 17°01' W 062°01'1121.5
2018-May-08 13:00N 17°08' W 061°52'1 3.0
2018-May-08 12:30N 17°07' W 061°51'0 0.0
2018-May-08 12:00N 17°07' W 061°51'4 8.0
2018-May-08 11:30N 17°07' W 061°55'1122.6
2018-May-08 11:01N 16°59' W 062°04'1020.7
2018-May-08 10:31N 16°52' W 062°11'4 7.0
2018-May-08 09:59N 16°48' W 062°12'0 0.0
2018-May-08 09:28N 16°48' W 062°12'0 0.0
2018-May-08 08:59N 16°48' W 062°12'0 0.0
2018-May-08 08:29N 16°48' W 062°12'0 0.0
2018-May-08 07:59N 16°48' W 062°12'0 0.0
2018-May-08 07:30N 16°48' W 062°12'0 0.0
2018-May-08 06:53N 16°48' W 062°12'0 0.0
2018-May-08 06:28N 16°48' W 062°12'0 0.0
2018-May-08 06:00N 16°48' W 062°12'0 0.0
2018-May-08 05:28N 16°48' W 062°12'0 0.0
2018-May-08 04:58N 16°48' W 062°12'0 0.0
2018-May-08 04:28N 16°48' W 062°12'0 0.0
2018-May-08 03:58N 16°48' W 062°12'0 0.0
2018-May-08 03:27N 16°48' W 062°12'0 0.0
2018-May-07 23:56N 16°48' W 062°12'0 0.0
2018-May-07 22:52N 16°48' W 062°12'0 0.0
2018-May-07 22:30N 16°48' W 062°12'0 0.0
2018-May-07 21:59N 16°48' W 062°12'0 0.0
2018-May-07 13:12N 16°48' W 062°12'0 0.0
2018-May-07 12:57N 16°48' W 062°12'0 0.0
2018-May-07 12:26N 16°48' W 062°12'0 0.0
2018-May-07 11:52N 16°48' W 062°12'0 0.0
2018-May-07 11:28N 16°48' W 062°12'0 0.0
2018-May-07 10:58N 16°48' W 062°12'0 0.0
2018-May-07 10:30N 16°48' W 062°12'0 0.0
2018-May-07 10:00N 16°48' W 062°12'0 0.0
2018-May-07 09:30N 16°48' W 062°12'0 0.0
2018-May-07 09:00N 16°48' W 062°12'0 0.0
2018-May-07 08:29N 16°48' W 062°12'0 0.0
2018-May-07 08:00N 16°48' W 062°12'0 0.0
2018-May-07 07:29N 16°48' W 062°12'0 0.0
2018-May-07 07:01N 16°48' W 062°12'0 0.0
2018-May-07 06:31N 16°48' W 062°12'0 0.0
2018-May-07 06:00N 16°48' W 062°12'0 0.0
2018-May-07 05:30N 16°48' W 062°12'0 0.0
2018-May-07 05:00N 16°48' W 062°12'0 0.0
2018-May-07 04:30N 16°48' W 062°12'0 0.0
2018-May-07 04:00N 16°48' W 062°12'0 0.0
2018-May-07 03:30N 16°48' W 062°12'0 0.0
2018-May-07 03:00N 16°48' W 062°12'0 0.0
2018-May-07 02:30N 16°48' W 062°12'0 0.0
2018-May-07 02:01N 16°48' W 062°12'0 0.0
2018-May-07 01:29N 16°48' W 062°12'0 0.0
2018-May-07 00:59N 16°48' W 062°12'0 1.0
2018-May-07 00:30N 16°49' W 062°13'1121.3
2018-May-06 23:59N 16°57' W 062°05'1123.1
2018-May-06 23:31N 17°05' W 061°57'713.4
2018-May-06 23:00N 17°07' W 061°51'0 0.0
2018-May-06 22:30N 17°07' W 061°51'0 0.0
2018-May-06 22:00N 17°07' W 061°51'0 0.0
2018-May-06 21:30N 17°07' W 061°51'0 0.0
2018-May-06 21:00N 17°07' W 061°51'0 0.0
2018-May-06 20:30N 17°07' W 061°51'0 0.0
2018-May-06 20:00N 17°07' W 061°51'0 0.0
2018-May-06 19:30N 17°07' W 061°51'0 0.0
2018-May-06 19:00N 17°07' W 061°51'0 0.0
2018-May-06 18:30N 17°07' W 061°51'0 0.0
2018-May-06 18:00N 17°07' W 061°51'0 0.0
2018-May-06 17:30N 17°07' W 061°51'0 0.0
2018-May-06 17:00N 17°07' W 061°51'0 0.0
2018-May-06 16:30N 17°07' W 061°51'0 0.0
2018-May-06 16:00N 17°07' W 061°51'0 0.0
2018-May-06 15:30N 17°07' W 061°51'0 0.0
2018-May-06 15:00N 17°07' W 061°51'0 0.0
2018-May-06 14:30N 17°07' W 061°51'0 0.0
2018-May-06 14:00N 17°07' W 061°51'0 0.0
2018-May-06 13:30N 17°07' W 061°51'0 0.0
2018-May-06 13:00N 17°07' W 061°51'0 0.0
2018-May-06 12:30N 17°07' W 061°51'0 0.0
2018-May-06 12:00N 17°07' W 061°51'2 3.2
2018-May-06 11:30N 17°08' W 061°52'1121.9
2018-May-06 11:01N 17°02' W 062°02'1121.8
2018-May-06 10:30N 16°54' W 062°11'611.1
2018-May-06 09:55N 16°48' W 062°12'0 0.0
2018-May-06 09:30N 16°48' W 062°12'0 0.0
2018-May-06 08:59N 16°48' W 062°12'0 0.0
2018-May-06 08:28N 16°48' W 062°12'0 0.0
2018-May-06 07:58N 16°48' W 062°12'0 0.0
2018-May-06 07:30N 16°48' W 062°12'0 0.0
2018-May-06 06:58N 16°48' W 062°12'0 0.0
2018-May-06 06:30N 16°48' W 062°12'0 0.0
2018-May-06 06:00N 16°48' W 062°12'0 0.0
2018-May-06 05:29N 16°48' W 062°12'0 0.0
2018-May-06 04:55N 16°48' W 062°12'0 0.0
2018-May-06 04:28N 16°48' W 062°12'0 0.0
2018-May-06 03:59N 16°48' W 062°12'0 0.0
2018-May-06 03:26N 16°48' W 062°12'0 0.0
2018-May-06 02:56N 16°48' W 062°12'0 0.0
2018-May-06 02:28N 16°48' W 062°12'0 0.0
2018-May-06 01:57N 16°48' W 062°12'0 0.0
2018-May-06 01:22N 16°48' W 062°12'0 0.0
2018-May-06 01:00N 16°48' W 062°12'0 0.0
2018-May-06 00:29N 16°48' W 062°12'1118.8
2018-May-05 23:54N 16°57' W 062°05'921.8
2018-May-05 23:30N 17°03' W 061°59'917.9
2018-May-05 23:00N 17°07' W 061°51'0 0.1
2018-May-05 22:30N 17°07' W 061°51'0 0.0
2018-May-05 22:00N 17°07' W 061°51'0 0.0
2018-May-05 21:30N 17°07' W 061°51'0 0.0
2018-May-05 21:00N 17°07' W 061°51'0 0.0
2018-May-05 20:30N 17°07' W 061°51'0 0.0
2018-May-05 20:00N 17°07' W 061°51'0 0.0
2018-May-05 19:30N 17°07' W 061°51'0 0.0
2018-May-05 19:00N 17°07' W 061°51'0 0.0
2018-May-05 18:30N 17°07' W 061°51'0 0.0
2018-May-05 18:00N 17°07' W 061°51'0 0.0
2018-May-05 17:30N 17°07' W 061°51'0 0.0
2018-May-05 17:00N 17°07' W 061°51'0 0.0
2018-May-05 16:30N 17°07' W 061°51'0 0.0
2018-May-05 16:00N 17°07' W 061°51'0 0.0
2018-May-05 15:30N 17°07' W 061°51'0 0.0
2018-May-05 15:00N 17°07' W 061°51'0 0.0
2018-May-05 14:30N 17°07' W 061°51'0 0.0
2018-May-05 14:00N 17°07' W 061°51'0 0.0
2018-May-05 13:30N 17°07' W 061°51'0 0.0
2018-May-05 13:00N 17°07' W 061°51'0 0.0
2018-May-05 12:30N 17°07' W 061°51'0 0.0
2018-May-05 11:59N 17°07' W 061°51'611.8
2018-May-05 11:31N 17°06' W 061°57'1121.3
2018-May-05 11:00N 17°00' W 062°06'1020.8
2018-May-05 10:30N 16°52' W 062°12'3 6.7
2018-May-05 10:00N 16°48' W 062°12'0 0.0
2018-May-05 09:29N 16°48' W 062°12'0 0.0
2018-May-05 08:59N 16°48' W 062°12'0 0.0
2018-May-05 08:30N 16°48' W 062°12'0 0.0
2018-May-05 08:00N 16°48' W 062°12'0 0.0
2018-May-05 07:29N 16°48' W 062°12'0 0.0
2018-May-05 06:58N 16°48' W 062°12'0 0.0
2018-May-05 06:30N 16°48' W 062°12'0 0.0
2018-May-05 06:00N 16°48' W 062°12'0 0.0
2018-May-05 05:30N 16°48' W 062°12'0 0.0
2018-May-05 04:58N 16°48' W 062°12'0 0.0
2018-May-05 04:29N 16°48' W 062°12'0 0.0
2018-May-05 04:00N 16°48' W 062°12'0 0.0
2018-May-05 03:30N 16°48' W 062°12'0 0.0
2018-May-05 03:00N 16°48' W 062°12'0 0.0
2018-May-05 02:30N 16°48' W 062°12'0 0.0
2018-May-05 01:58N 16°48' W 062°12'0 0.0
2018-May-05 01:30N 16°48' W 062°12'4 8.7
2018-May-05 01:01N 16°52' W 062°10'1121.2
2018-May-05 00:31N 16°60' W 062°02'1122.7
2018-May-05 00:01N 17°08' W 061°54'3 6.5
2018-May-04 23:30N 17°07' W 061°51'0 0.0
2018-May-04 23:01N 17°07' W 061°51'0 0.0
2018-May-04 22:31N 17°07' W 061°51'2 3.8
2018-May-04 22:01N 17°08' W 061°53'1122.0
2018-May-04 21:30N 17°01' W 062°01'1121.7
2018-May-04 21:00N 16°53' W 062°10'611.3
2018-May-04 20:30N 16°48' W 062°12'0 0.0
2018-May-04 20:00N 16°48' W 062°12'0 0.0
2018-May-04 19:30N 16°48' W 062°12'0 0.0
2018-May-04 18:55N 16°48' W 062°12'0 0.0
2018-May-04 18:30N 16°48' W 062°12'0 0.0
2018-May-04 17:55N 16°48' W 062°12'0 0.0
2018-May-04 17:29N 16°48' W 062°12'0 0.0
2018-May-04 17:00N 16°48' W 062°12'0 0.0
2018-May-04 16:29N 16°48' W 062°12'0 0.0
2018-May-04 15:58N 16°48' W 062°12'0 0.0
2018-May-04 15:29N 16°48' W 062°12'0 0.0
2018-May-04 15:00N 16°48' W 062°12'0 0.0
2018-May-04 14:30N 16°48' W 062°12'1 1.9
2018-May-04 14:01N 16°49' W 062°13'1020.1
2018-May-04 13:30N 16°57' W 062°06'1121.3
2018-May-04 13:00N 17°04' W 061°58'714.8
2018-May-04 12:31N 17°07' W 061°51'0 0.0
2018-May-04 12:01N 17°07' W 061°51'2 3.8
2018-May-04 11:31N 17°08' W 061°53'1122.8
2018-May-04 11:01N 17°01' W 062°02'1121.2
2018-May-04 10:30N 16°54' W 062°10'611.8
2018-May-04 10:00N 16°48' W 062°12'0 0.0
2018-May-04 09:29N 16°48' W 062°12'0 0.0
2018-May-04 08:58N 16°48' W 062°12'0 0.0
2018-May-04 08:30N 16°48' W 062°12'0 0.0
2018-May-04 07:51N 16°48' W 062°12'0 0.0
2018-May-04 07:30N 16°48' W 062°12'0 0.0
2018-May-04 07:00N 16°48' W 062°12'0 0.0
2018-May-04 06:30N 16°48' W 062°12'0 0.0
2018-May-04 06:00N 16°48' W 062°12'0 0.0
2018-May-04 05:29N 16°48' W 062°12'0 0.0
2018-May-04 05:00N 16°48' W 062°12'0 0.0
2018-May-04 04:30N 16°48' W 062°12'0 0.0
2018-May-04 04:00N 16°48' W 062°12'0 0.0
2018-May-04 03:29N 16°48' W 062°12'0 0.0
2018-May-04 03:00N 16°48' W 062°12'0 0.0
2018-May-04 02:30N 16°48' W 062°12'0 0.0
2018-May-04 01:58N 16°48' W 062°12'0 0.0
2018-May-04 01:29N 16°48' W 062°12'0 0.0
2018-May-04 01:00N 16°48' W 062°12'0 0.8
2018-May-04 00:30N 16°48' W 062°13'1120.1
2018-May-03 23:59N 16°57' W 062°06'1021.4
2018-May-03 23:30N 17°04' W 061°58'815.8
2018-May-03 23:01N 17°07' W 061°51'0 0.0
2018-May-03 22:30N 17°07' W 061°51'0 0.0
2018-May-03 22:01N 17°07' W 061°51'0 0.0
2018-May-03 21:31N 17°07' W 061°51'0 0.0
2018-May-03 21:00N 17°07' W 061°51'0 0.0
2018-May-03 20:30N 17°07' W 061°51'0 0.0
2018-May-03 20:00N 17°07' W 061°51'0 0.0
2018-May-03 19:31N 17°07' W 061°51'0 0.0
2018-May-03 19:01N 17°07' W 061°51'0 0.0
2018-May-03 18:30N 17°07' W 061°51'0 0.0
2018-May-03 17:59N 17°07' W 061°51'0 0.0
2018-May-03 17:30N 17°07' W 061°51'0 0.0
2018-May-03 17:00N 17°07' W 061°51'0 0.0
2018-May-03 16:31N 17°07' W 061°51'0 0.0
2018-May-03 16:00N 17°07' W 061°51'0 0.0
2018-May-03 15:31N 17°07' W 061°51'0 0.0
2018-May-03 15:01N 17°07' W 061°51'0 0.0
2018-May-03 14:30N 17°07' W 061°51'0 0.0
2018-May-03 14:00N 17°07' W 061°51'0 0.0
2018-May-03 13:30N 17°07' W 061°51'0 0.0
2018-May-03 13:00N 17°07' W 061°51'0 0.0
2018-May-03 12:31N 17°07' W 061°51'0 0.0
2018-May-03 12:01N 17°07' W 061°51'4 8.9
2018-May-03 11:31N 17°07' W 061°55'1122.7
2018-May-03 11:01N 16°59' W 062°04'1122.2
2018-May-03 10:31N 16°51' W 062°12'3 5.0
2018-May-03 09:55N 16°48' W 062°12'0 0.0
2018-May-03 09:30N 16°48' W 062°12'0 0.0
2018-May-03 08:57N 16°48' W 062°12'0 0.0
2018-May-03 08:30N 16°48' W 062°12'0 0.0
2018-May-03 08:00N 16°48' W 062°12'0 0.0
2018-May-03 07:30N 16°48' W 062°12'0 0.0
2018-May-03 07:00N 16°48' W 062°12'0 0.0
2018-May-03 06:30N 16°48' W 062°12'0 0.0
2018-May-03 06:00N 16°48' W 062°12'0 0.0
2018-May-03 05:30N 16°48' W 062°12'0 0.0
2018-May-03 04:59N 16°48' W 062°12'0 0.0
2018-May-03 04:30N 16°48' W 062°12'0 0.0
2018-May-03 03:55N 16°48' W 062°12'0 0.0
2018-May-03 03:29N 16°48' W 062°12'0 0.0
2018-May-03 03:00N 16°48' W 062°12'0 0.0
2018-May-03 02:30N 16°48' W 062°12'0 0.0
2018-May-03 01:58N 16°48' W 062°12'0 0.0
2018-May-03 01:29N 16°48' W 062°12'0 0.0
2018-May-03 00:59N 16°48' W 062°12'0 0.0
2018-May-03 00:28N 16°48' W 062°12'0 0.0
2018-May-02 23:59N 16°48' W 062°12'0 0.0
2018-May-02 23:27N 16°48' W 062°12'0 0.0
2018-May-02 23:00N 16°48' W 062°12'0 0.0
2018-May-02 22:30N 16°48' W 062°12'0 0.0
2018-May-02 21:50N 16°48' W 062°12'0 0.0
2018-May-02 21:30N 16°48' W 062°12'0 0.0
2018-May-02 21:00N 16°48' W 062°12'0 0.0
2018-May-02 20:30N 16°48' W 062°12'0 0.0
2018-May-02 20:00N 16°48' W 062°12'0 0.0
2018-May-02 19:29N 16°48' W 062°12'0 0.0
2018-May-02 19:00N 16°48' W 062°12'0 0.0
2018-May-02 18:29N 16°48' W 062°12'0 0.0
2018-May-02 18:01N 16°48' W 062°12'0 0.0
2018-May-02 17:31N 16°48' W 062°12'0 0.0
2018-May-02 16:57N 16°48' W 062°12'0 0.0
2018-May-02 16:30N 16°48' W 062°12'0 0.0
2018-May-02 16:00N 16°48' W 062°12'0 0.0
2018-May-02 15:30N 16°48' W 062°12'0 0.0
2018-May-02 15:01N 16°48' W 062°12'0 0.0
2018-May-02 14:29N 16°48' W 062°12'0 0.0
2018-May-02 13:58N 16°48' W 062°12'  

Dump ship's entire track history